createdAt,value
2023-03-29T00:00:27.707Z,11.40
2023-03-29T00:03:12.687Z,11.30
2023-03-29T00:05:42.465Z,11.37
2023-03-29T00:08:15.891Z,11.29
2023-03-29T00:10:49.904Z,11.13
2023-03-29T00:13:19.004Z,11.33
2023-03-29T00:15:47.211Z,11.39
2023-03-29T00:18:15.032Z,11.07
2023-03-29T00:20:44.085Z,11.11
2023-03-29T00:23:12.984Z,11.22
2023-03-29T00:25:45.274Z,11.15
2023-03-29T00:28:15.489Z,11.20
2023-03-29T00:30:43.559Z,10.92
2023-03-29T00:33:11.893Z,10.83
2023-03-29T00:35:43.039Z,10.68
2023-03-29T00:38:12.066Z,10.59
2023-03-29T00:40:49.726Z,10.64
2023-03-29T00:43:19.091Z,10.50
2023-03-29T00:45:48.314Z,10.46
2023-03-29T00:48:19.300Z,10.48
2023-03-29T00:50:55.977Z,10.59
2023-03-29T00:53:31.115Z,10.84
2023-03-29T00:56:08.188Z,10.72
2023-03-29T00:58:52.342Z,10.81
2023-03-29T01:01:28.825Z,11.08
2023-03-29T01:04:04.988Z,11.10
2023-03-29T01:06:36.536Z,10.96
2023-03-29T01:09:10.143Z,11.00
2023-03-29T01:11:47.491Z,11.27
2023-03-29T01:14:30.665Z,11.81
2023-03-29T01:16:59.764Z,12.12
2023-03-29T01:19:34.991Z,11.78
2023-03-29T01:22:26.364Z,11.55
2023-03-29T01:25:21.580Z,11.67
2023-03-29T01:28:01.229Z,11.95
2023-03-29T01:30:38.610Z,11.83
2023-03-29T01:33:32.580Z,11.77
2023-03-29T01:36:11.899Z,11.60
2023-03-29T01:38:52.919Z,11.66
2023-03-29T01:41:21.413Z,11.26
2023-03-29T01:43:57.022Z,11.56
2023-03-29T01:46:40.392Z,11.21
2023-03-29T01:49:13.777Z,11.22
2023-03-29T01:51:54.018Z,11.15
2023-03-29T01:54:32.856Z,11.33
2023-03-29T01:57:07.252Z,11.82
2023-03-29T01:59:42.691Z,11.71
2023-03-29T02:02:18.087Z,11.49
2023-03-29T02:04:58.338Z,11.47
2023-03-29T02:07:33.120Z,10.78
2023-03-29T02:10:02.979Z,10.87
2023-03-29T05:02:57.098Z,10.25
2023-03-29T05:05:38.000Z,10.26
2023-03-29T05:08:12.627Z,10.01
2023-03-29T05:11:16.935Z,10.20
2023-03-29T05:14:13.482Z,10.34
2023-03-29T05:19:41.538Z,10.26
2023-03-29T05:22:11.362Z,10.36
2023-03-29T05:24:39.376Z,10.22
2023-03-29T05:27:15.587Z,10.24
2023-03-29T05:29:49.939Z,10.12
2023-03-29T05:32:26.009Z,10.26
2023-03-29T05:34:56.586Z,10.23
2023-03-29T05:37:24.503Z,10.54
2023-03-29T05:40:05.582Z,10.45
2023-03-29T05:42:38.763Z,10.73
2023-03-29T05:45:10.665Z,10.47
2023-03-29T05:47:48.074Z,10.30
2023-03-29T05:50:15.915Z,10.61
2023-03-29T05:52:44.000Z,10.56
2023-03-29T05:55:12.643Z,10.68
2023-03-29T05:57:41.577Z,10.97
2023-03-29T06:00:25.879Z,10.45
2023-03-29T06:03:27.795Z,10.76
2023-03-29T06:06:02.738Z,10.82
2023-03-29T06:08:33.524Z,10.80
2023-03-29T06:11:22.992Z,11.09
2023-03-29T06:14:39.427Z,11.18
2023-03-29T06:17:28.166Z,10.50
2023-03-29T06:19:58.166Z,10.85
2023-03-29T06:22:33.209Z,10.88
2023-03-29T06:25:01.129Z,11.06
2023-03-29T06:31:42.516Z,11.25
2023-03-29T06:34:23.612Z,11.48
2023-03-29T06:37:01.653Z,11.38
2023-03-29T06:40:02.279Z,11.27
2023-03-29T06:42:42.694Z,11.41
2023-03-29T06:45:34.447Z,10.87
2023-03-29T06:48:21.156Z,10.28
2023-03-29T06:50:59.424Z,10.55
2023-03-29T06:53:32.877Z,11.09
2023-03-29T06:56:09.695Z,11.19
2023-03-29T07:01:38.331Z,11.48
2023-03-29T07:04:20.718Z,11.69
2023-03-29T07:07:20.723Z,11.70
2023-03-29T07:09:56.339Z,11.84
2023-03-29T07:12:24.895Z,11.74
2023-03-29T07:14:57.208Z,11.93
2023-03-29T07:17:34.897Z,12.51
2023-03-29T07:20:08.330Z,12.13
2023-03-29T07:22:47.644Z,11.71
2023-03-29T07:25:16.692Z,11.72
2023-03-29T07:28:09.718Z,11.53
2023-03-29T07:30:40.976Z,11.70
2023-03-29T07:33:18.538Z,12.14
2023-03-29T07:35:58.393Z,11.91
2023-03-29T07:38:30.192Z,12.04
2023-03-29T07:41:12.719Z,12.38
2023-03-29T07:43:42.290Z,12.00
2023-03-29T07:46:24.222Z,12.35
2023-03-29T07:48:57.538Z,12.15
2023-03-29T07:51:47.791Z,12.39
2023-03-29T07:54:43.210Z,12.83
2023-03-29T07:57:59.540Z,13.44
2023-03-29T08:00:32.787Z,12.90
2023-03-29T15:34:18.800Z,18.78
2023-03-29T15:37:02.747Z,18.86
2023-03-29T15:40:13.893Z,18.58
2023-03-29T15:55:16.032Z,18.58
2023-03-29T16:04:10.852Z,18.19
2023-03-29T16:06:39.234Z,18.32
2023-03-29T16:09:12.422Z,18.42
2023-03-29T16:11:44.344Z,18.42
2023-03-29T16:14:31.074Z,18.15
2023-03-29T16:17:17.941Z,18.51
2023-03-29T16:20:07.560Z,18.56
2023-03-29T16:22:43.508Z,18.54
2023-03-29T16:26:04.949Z,18.79
2023-03-29T17:27:52.961Z,18.33
2023-03-29T17:54:57.498Z,17.84
2023-03-29T18:24:59.264Z,17.51
2023-03-29T18:39:08.878Z,17.19
2023-03-29T18:45:37.011Z,17.23
2023-03-29T18:53:32.962Z,17.21
2023-03-29T19:00:27.573Z,16.64
2023-03-29T19:12:05.475Z,16.63
2023-03-29T19:15:03.360Z,16.87
2023-03-29T19:22:01.661Z,16.85
2023-03-29T19:24:40.947Z,16.95
2023-03-29T19:29:05.081Z,16.57
2023-03-29T19:33:44.574Z,16.71
2023-03-29T19:48:33.693Z,16.40
2023-03-29T19:57:10.284Z,16.35
2023-03-29T20:13:01.408Z,15.53
2023-03-29T20:17:27.705Z,15.82
2023-03-29T20:19:59.151Z,15.79
2023-03-29T20:27:04.925Z,15.73
2023-03-29T20:29:40.601Z,15.58
2023-03-29T20:32:09.787Z,15.53
2023-03-29T20:34:39.755Z,15.84
2023-03-29T20:37:25.230Z,16.04
2023-03-29T20:40:00.400Z,16.11
2023-03-29T20:42:37.126Z,15.92
2023-03-29T20:50:49.511Z,15.90
2023-03-29T20:58:12.005Z,15.48
2023-03-29T21:00:45.626Z,15.22
2023-03-29T21:03:16.921Z,15.10
2023-03-29T21:05:53.253Z,15.24
2023-03-29T21:16:50.447Z,15.01
2023-03-29T21:24:43.076Z,15.34
2023-03-29T21:32:13.914Z,15.19
2023-03-29T21:34:48.494Z,15.06
2023-03-29T21:37:17.866Z,15.23
2023-03-29T21:39:51.149Z,14.99
2023-03-29T21:43:09.513Z,15.44
2023-03-29T21:45:45.162Z,15.33
2023-03-29T21:48:18.846Z,15.24
2023-03-29T21:52:08.841Z,15.44
2023-03-29T21:54:13.260Z,15.20
2023-03-29T21:56:47.511Z,15.03
2023-03-29T22:17:40.410Z,14.98
2023-03-29T22:20:21.660Z,15.02
2023-03-29T22:22:51.205Z,15.03
2023-03-29T22:26:11.838Z,15.14
2023-03-29T22:38:59.416Z,14.89
2023-03-29T22:45:59.979Z,14.77
2023-03-29T22:48:27.982Z,14.91
2023-03-29T22:51:00.189Z,15.21
2023-03-29T22:58:06.440Z,14.90
2023-03-29T23:04:42.413Z,14.78
2023-03-29T23:07:10.148Z,14.62
2023-03-29T23:09:38.183Z,14.44
2023-03-29T23:12:07.205Z,14.53
2023-03-29T23:14:35.644Z,14.46
2023-03-29T23:17:03.509Z,14.69
2023-03-29T23:19:31.765Z,14.59
2023-03-29T23:21:59.443Z,14.67
2023-03-29T23:24:30.896Z,14.59
2023-03-29T23:26:58.579Z,14.33
2023-03-29T23:29:26.532Z,14.55
2023-03-29T23:31:56.946Z,14.46
2023-03-29T23:34:25.393Z,14.33
2023-03-29T23:36:53.108Z,14.65
2023-03-29T23:39:20.941Z,14.75
2023-03-29T23:41:49.058Z,14.63
2023-03-29T23:44:17.141Z,14.77
2023-03-29T23:46:44.952Z,14.40
2023-03-29T23:49:12.951Z,14.49
2023-03-29T23:51:42.956Z,14.21
2023-03-29T23:54:13.038Z,14.53
